createdAt,value
2023-05-16T00:09:16.185Z,0
2023-05-16T00:22:16.176Z,0
2023-05-16T00:35:16.266Z,0
2023-05-16T00:48:16.324Z,0
2023-05-16T01:01:16.347Z,0
2023-05-16T01:14:16.340Z,0
2023-05-16T01:27:16.361Z,0
2023-05-16T01:40:16.360Z,0
2023-05-16T01:53:16.362Z,1.8
2023-05-16T02:06:16.364Z,0.8
2023-05-16T02:19:16.445Z,0
2023-05-16T02:32:16.424Z,0
2023-05-16T02:45:16.386Z,1.3
2023-05-16T02:58:16.413Z,0.2
2023-05-16T03:11:16.478Z,0.8
2023-05-16T03:24:16.844Z,0.8
2023-05-16T03:37:16.675Z,0
2023-05-16T03:50:16.689Z,0.6
2023-05-16T04:03:16.956Z,0
2023-05-16T04:16:16.711Z,0
2023-05-16T04:29:16.666Z,0
2023-05-16T04:42:16.802Z,0.2
2023-05-16T04:55:16.785Z,0
2023-05-16T05:08:16.823Z,0
2023-05-16T05:21:16.865Z,0
2023-05-16T05:34:16.840Z,0.8
2023-05-16T05:47:16.830Z,0
2023-05-16T06:00:16.849Z,0
2023-05-16T06:13:16.866Z,0.9
2023-05-16T06:26:16.902Z,1.7
2023-05-16T06:39:16.948Z,0.8
2023-05-16T06:52:16.995Z,0
2023-05-16T07:05:16.964Z,0
2023-05-16T07:18:16.956Z,0.6
2023-05-16T07:31:16.999Z,0.8
2023-05-16T07:44:16.987Z,0
2023-05-16T07:57:17.011Z,0.8
2023-05-16T08:10:17.024Z,0.4
2023-05-16T08:23:17.007Z,0.8
2023-05-16T08:36:17.114Z,0.4
2023-05-16T08:49:17.045Z,0
2023-05-16T09:02:17.110Z,0.8
2023-05-16T09:15:17.142Z,1.4
2023-05-16T09:28:17.119Z,2.6
2023-05-16T09:41:17.174Z,2.3
2023-05-16T09:54:17.176Z,1.3
2023-05-16T10:07:17.234Z,2.3
2023-05-16T10:20:17.235Z,1.0
2023-05-16T10:33:17.347Z,1.4
2023-05-16T10:46:17.315Z,1.7
2023-05-16T10:59:17.303Z,2.3
2023-05-16T11:12:17.309Z,1.9
2023-05-16T11:25:17.305Z,2.1
2023-05-16T11:38:17.330Z,2.3
2023-05-16T11:51:17.349Z,2.4
2023-05-16T12:04:17.522Z,2.7
2023-05-16T12:17:17.351Z,1.9
2023-05-16T12:30:17.362Z,2.4
2023-05-16T12:43:17.371Z,0.8
2023-05-16T12:56:17.393Z,2.0
2023-05-16T13:09:17.456Z,1.4
2023-05-16T13:22:17.432Z,1.9
2023-05-16T13:35:17.427Z,1.2
2023-05-16T13:48:17.518Z,1.1
2023-05-16T14:01:17.560Z,1.7
2023-05-16T14:14:17.540Z,1.4
2023-05-16T14:27:17.538Z,1.6
2023-05-16T14:40:17.566Z,1.9
2023-05-16T14:53:17.556Z,1.4
2023-05-16T15:06:17.686Z,2.0
2023-05-16T15:19:17.663Z,1.1
2023-05-16T15:32:17.718Z,0.6
2023-05-16T15:45:17.634Z,0
2023-05-16T15:58:17.687Z,0.8
2023-05-16T16:11:17.708Z,0.2
2023-05-16T16:24:17.718Z,0.9
2023-05-16T16:37:17.758Z,0.4
2023-05-16T16:50:17.774Z,0
2023-05-16T17:03:17.775Z,0
2023-05-16T17:16:17.875Z,0
2023-05-16T17:29:17.868Z,0
2023-05-16T17:42:17.892Z,0
2023-05-16T17:55:17.977Z,0
2023-05-16T18:08:17.956Z,0
2023-05-16T18:21:17.953Z,0
2023-05-16T18:34:18.153Z,0.6
2023-05-16T18:47:18.138Z,0.8
2023-05-16T19:00:18.092Z,0.8
2023-05-16T19:13:18.123Z,0
2023-05-16T19:26:18.123Z,0
2023-05-16T19:39:18.225Z,0
2023-05-16T19:52:18.196Z,0
2023-05-16T20:05:18.270Z,0
2023-05-16T20:18:18.257Z,0
2023-05-16T20:31:18.286Z,0
2023-05-16T20:44:18.275Z,0
2023-05-16T20:57:18.253Z,0
2023-05-16T21:10:18.328Z,0.8
2023-05-16T21:23:18.326Z,0
2023-05-16T21:36:18.361Z,0
2023-05-16T21:49:18.365Z,0.4
2023-05-16T22:02:18.377Z,0
2023-05-16T22:15:18.411Z,0
2023-05-16T22:28:18.397Z,0
2023-05-16T22:41:18.421Z,0
2023-05-16T22:54:18.426Z,0
2023-05-16T23:07:18.424Z,0
2023-05-16T23:20:18.522Z,0
2023-05-16T23:33:18.576Z,0
2023-05-16T23:46:18.576Z,0
2023-05-16T23:59:18.708Z,0.4
